Airfield :
LOGIN :

Register | Disclaimer

   EN    FR    IT 

 










Legend :    VFR   Marginal VFR   IFR   Intensive IFR   Very Intensive IFR
Visi :
Ceiling :
>= 8 km
>= 3000ft
5 to 8 km
1000 to 3000 ft
1500m to 5 km
500 to 1000 ft
800 to 1500m
200 to 500 ft
< 800m
< 200 ft
Symbols :   Thunderstorms  Fog  Heavy snow  Heavy precipitations  Wind > 20 kt
SIGMETs :     Misc.  Thunderstorms  Icing  Turbulence  Mountain Waves  Volcanic Ashes






- Airport Elevation : 16 ft
- IATA code : SDL


ESNN - Sundsvall-Härnösand

CURRENT METAR :
  • 201620Z 33003KT 9999 BCFG NSC M02/M02 Q1028 R16/19//55

EXPIRED METARs :
  • 201550Z VRB02KT 9999 BCFG NSC M02/M02 Q1028 R16/19//58
  • 201520Z VRB03KT CAVOK M01/M01 Q1027 R16/19//58
  • 201450Z 34005KT CAVOK M01/M01 Q1027 R16/19//58
  • 201420Z VRB03KT CAVOK M00/M00 Q1027 R16/19//58
  • 201350Z 13005KT CAVOK M00/M00 Q1027 R16/19//58

TAF AMD TAF ESNN
Valid from the 20 at 16:00 until the 20 at 22:00 UTC


201646Z 2016/2022 VRB02KT CAVOK
TEMPO 2018/2022 0400 FZFG VV002



MET'MAP, your aeronautical weather chart ! - Copyright ORBIFLY December 2007 - Disclaimer

ORBIFLY MET'MAP TEAM :

Programming & Development : Alexandra Zaïnal
Concept & Development : Baudouin d'Aumeries
Co-Development & Prog : Marc-Olivier Méhu
Technical & hardware support : Manuel Goepfert

Contact : metmap@orbifly.com




SOURCES & CREDITS :

   NOAA